createdAt,value
2019-05-28T00:01:27.026Z,50.40
2019-05-28T00:03:56.759Z,51.33
2019-05-28T00:06:26.648Z,49.87
2019-05-28T00:08:56.608Z,47.37
2019-05-28T00:11:26.297Z,47.63
2019-05-28T00:13:55.967Z,48.40
2019-05-28T00:16:25.698Z,47.13
2019-05-28T00:18:56.946Z,47.70
2019-05-28T00:21:26.795Z,48.10
2019-05-28T00:23:56.448Z,48.90
2019-05-28T00:26:26.721Z,47.70
2019-05-28T00:28:56.398Z,48.67
2019-05-28T00:31:26.054Z,48.93
2019-05-28T00:33:55.987Z,48.83
2019-05-28T00:36:25.652Z,49.83
2019-05-28T00:38:55.470Z,48.57
2019-05-28T00:41:27.007Z,48.80
2019-05-28T00:43:56.678Z,48.53
2019-05-28T00:46:27.502Z,51.93
2019-05-28T00:48:57.819Z,49.50
2019-05-28T00:51:28.221Z,49.90
2019-05-28T00:53:58.299Z,49.97
2019-05-28T00:56:28.796Z,50.53
2019-05-28T00:58:59.677Z,49.30
2019-05-28T01:01:29.366Z,51.03
2019-05-28T01:04:00.095Z,48.43
2019-05-28T01:06:29.766Z,47.60
2019-05-28T01:08:59.441Z,47.53
2019-05-28T01:11:30.764Z,48.00
2019-05-28T01:14:00.455Z,47.70
2019-05-28T01:16:30.161Z,48.87
2019-05-28T01:18:59.889Z,48.97
2019-05-28T01:21:29.755Z,50.80
2019-05-28T01:23:59.551Z,48.83
2019-05-28T01:26:29.239Z,47.47
2019-05-28T01:28:58.915Z,51.37
2019-05-28T01:31:28.609Z,49.73
2019-05-28T01:33:58.296Z,48.13
2019-05-28T01:36:28.248Z,47.80
2019-05-28T01:38:57.928Z,48.33
2019-05-28T01:41:27.636Z,48.37
2019-05-28T01:43:57.303Z,48.83
2019-05-28T01:46:26.998Z,49.07
2019-05-28T01:48:58.443Z,46.20
2019-05-28T01:51:28.108Z,47.23
2019-05-28T01:53:57.792Z,49.77
2019-05-28T01:56:27.515Z,47.50
2019-05-28T01:58:57.200Z,48.93
2019-05-28T02:01:28.455Z,48.03
2019-05-28T02:03:58.156Z,47.77
2019-05-28T02:06:27.820Z,47.57
2019-05-28T02:08:57.471Z,47.63
2019-05-28T02:11:27.191Z,50.10
2019-05-28T02:13:56.861Z,49.53
2019-05-28T02:16:26.507Z,46.37
2019-05-28T02:18:56.399Z,45.30
2019-05-28T02:21:29.165Z,46.30
2019-05-28T02:24:00.457Z,47.00
2019-05-28T02:26:30.167Z,47.70
2019-05-28T02:28:59.845Z,47.53
2019-05-28T02:31:29.798Z,45.90
2019-05-28T02:33:59.477Z,46.10
2019-05-28T02:36:29.135Z,48.00
2019-05-28T02:38:59.129Z,46.87
2019-05-28T02:41:30.374Z,48.40
2019-05-28T02:44:01.051Z,48.23
2019-05-28T02:46:31.562Z,46.97
2019-05-28T02:49:05.653Z,45.70
2019-05-28T02:51:35.607Z,47.50
2019-05-28T02:54:05.574Z,46.40
2019-05-28T02:56:37.070Z,51.07
2019-05-28T02:59:08.734Z,49.37
2019-05-28T03:01:44.219Z,49.50
2019-05-28T03:04:15.912Z,45.73
2019-05-28T03:06:49.560Z,47.27
2019-05-28T03:09:23.410Z,46.27
2019-05-28T03:11:53.079Z,50.33
2019-05-28T03:14:22.789Z,47.13
2019-05-28T03:16:56.680Z,45.17
2019-05-28T03:19:29.871Z,47.43
2019-05-28T03:22:02.949Z,47.57
2019-05-28T03:24:35.602Z,48.87
2019-05-28T03:27:07.315Z,46.13
2019-05-28T03:29:38.297Z,46.57
2019-05-28T03:32:09.864Z,47.37
2019-05-28T03:34:42.281Z,46.57
2019-05-28T03:37:13.853Z,46.43
2019-05-28T03:39:48.095Z,47.17
2019-05-28T03:42:18.165Z,46.17
2019-05-28T03:44:47.823Z,49.40
2019-05-28T03:47:17.486Z,47.27
2019-05-28T03:49:47.196Z,47.13
2019-05-28T03:52:16.875Z,45.10
2019-05-28T03:54:46.714Z,48.67
2019-05-28T03:57:16.383Z,47.27
2019-05-28T03:59:46.082Z,51.67
2019-05-28T04:02:23.441Z,47.03
2019-05-28T04:04:47.138Z,47.70
2019-05-28T04:07:16.850Z,49.53
2019-05-28T04:09:46.536Z,46.73
2019-05-28T04:12:16.196Z,46.20
2019-05-28T04:14:48.573Z,47.93
2019-05-28T04:17:19.645Z,48.10
2019-05-28T04:19:49.322Z,47.53
2019-05-28T04:22:19.013Z,47.27
2019-05-28T04:24:48.599Z,50.00
2019-05-28T04:27:20.523Z,48.20
2019-05-28T04:29:51.651Z,49.43
2019-05-28T04:32:21.427Z,47.87
2019-05-28T04:34:51.230Z,48.00
2019-05-28T04:37:20.905Z,48.83
2019-05-28T04:39:50.565Z,49.23
2019-05-28T04:42:21.698Z,50.27
2019-05-28T04:44:51.457Z,48.27
2019-05-28T04:47:21.710Z,49.40
2019-05-28T04:49:51.887Z,49.73
2019-05-28T04:52:22.703Z,48.87
2019-05-28T04:54:56.053Z,51.33
2019-05-28T04:57:26.894Z,50.07
2019-05-28T04:59:57.560Z,51.17
2019-05-28T05:02:28.011Z,48.83
2019-05-28T05:04:57.692Z,49.97
2019-05-28T05:07:27.383Z,51.13
2019-05-28T05:09:57.046Z,51.63
2019-05-28T05:12:26.641Z,50.77
2019-05-28T05:14:57.884Z,50.93
2019-05-28T05:17:27.743Z,51.40
2019-05-28T05:19:57.616Z,50.87
2019-05-28T05:22:27.318Z,48.20
2019-05-28T05:24:56.980Z,51.37
2019-05-28T05:27:26.658Z,50.67
2019-05-28T05:29:56.360Z,51.40
2019-05-28T05:32:27.833Z,48.47
2019-05-28T05:34:58.207Z,50.03
2019-05-28T05:37:29.934Z,50.17
2019-05-28T05:39:59.615Z,50.23
2019-05-28T05:42:29.425Z,49.47
2019-05-28T05:44:59.211Z,50.27
2019-05-28T05:47:29.078Z,48.57
2019-05-28T05:49:58.751Z,52.10
2019-05-28T05:52:28.460Z,51.60
2019-05-28T05:54:58.212Z,48.50
2019-05-28T05:57:29.510Z,48.43
2019-05-28T06:00:00.602Z,51.40
2019-05-28T06:02:30.211Z,52.27
2019-05-28T06:05:00.216Z,49.77
2019-05-28T06:07:31.527Z,52.17
2019-05-28T06:10:02.768Z,51.67
2019-05-28T06:12:32.442Z,51.20
2019-05-28T06:15:02.645Z,51.13
2019-05-28T06:17:34.165Z,52.20
2019-05-28T06:20:07.128Z,53.63
2019-05-28T06:22:37.925Z,53.70
2019-05-28T06:25:09.403Z,52.60
2019-05-28T06:27:39.076Z,51.80
2019-05-28T06:30:10.328Z,51.33
2019-05-28T06:32:41.486Z,52.00
2019-05-28T06:35:13.122Z,51.40
2019-05-28T06:37:42.899Z,50.97
2019-05-28T06:40:14.669Z,52.00
2019-05-28T06:42:44.333Z,53.03
2019-05-28T06:45:14.626Z,52.67
2019-05-28T06:47:45.582Z,52.63
2019-05-28T06:50:16.516Z,51.70
2019-05-28T06:52:46.216Z,52.17
2019-05-28T06:55:16.009Z,51.77
2019-05-28T06:57:47.108Z,52.80
2019-05-28T07:00:17.697Z,51.60
2019-05-28T07:02:49.001Z,53.93
2019-05-28T07:05:19.347Z,50.90
2019-05-28T07:07:49.047Z,53.17
2019-05-28T07:10:19.235Z,50.37
2019-05-28T07:12:48.907Z,55.60
2019-05-28T07:15:18.582Z,53.30
2019-05-28T07:17:48.255Z,50.87
2019-05-28T07:20:18.822Z,49.93
2019-05-28T07:22:49.652Z,51.17
2019-05-28T07:25:19.741Z,51.07
2019-05-28T07:27:49.791Z,51.43
2019-05-28T07:30:20.016Z,52.63
2019-05-28T07:32:49.756Z,52.43
2019-05-28T07:35:19.410Z,53.13
2019-05-28T07:37:50.483Z,52.53
2019-05-28T07:40:31.096Z,54.13
2019-05-28T07:42:51.566Z,53.20
2019-05-28T07:45:21.263Z,55.63
2019-05-28T07:47:50.930Z,54.20
2019-05-28T07:50:20.608Z,55.07
2019-05-28T07:52:50.297Z,53.33
2019-05-28T07:55:20.279Z,54.30
2019-05-28T07:57:49.953Z,55.77
2019-05-28T08:00:24.047Z,53.67
2019-05-28T08:02:53.729Z,55.60
2019-05-28T08:05:23.844Z,53.93
2019-05-28T08:07:53.592Z,54.50
2019-05-28T08:10:23.322Z,54.73
2019-05-28T08:12:53.000Z,54.20
2019-05-28T08:15:23.679Z,54.60
2019-05-28T08:17:53.398Z,55.50
2019-05-28T08:20:24.591Z,56.23
2019-05-28T08:22:54.355Z,56.93
2019-05-28T08:25:45.662Z,55.97
2019-05-28T08:27:56.431Z,56.20
2019-05-28T08:30:26.179Z,56.10
2019-05-28T08:32:55.853Z,57.03
2019-05-28T08:35:25.533Z,53.50
2019-05-28T08:37:55.232Z,56.50
2019-05-28T08:40:26.327Z,58.23
2019-05-28T08:42:56.090Z,56.20
2019-05-28T08:45:26.488Z,56.20
2019-05-28T08:47:56.131Z,56.83
2019-05-28T08:50:34.453Z,57.70
2019-05-28T08:52:57.698Z,56.10
2019-05-28T08:55:27.350Z,57.20
2019-05-28T08:57:57.134Z,57.27
2019-05-28T09:00:44.183Z,58.00
2019-05-28T09:03:14.606Z,55.93
2019-05-28T09:05:44.585Z,55.10
2019-05-28T09:08:14.279Z,56.13
2019-05-28T09:10:44.342Z,56.63
2019-05-28T09:13:14.076Z,53.53
2019-05-28T09:15:43.748Z,55.07
2019-05-28T09:18:13.420Z,55.03
2019-05-28T09:20:43.710Z,56.10
2019-05-28T09:23:13.626Z,56.47
2019-05-28T09:25:45.308Z,55.10
2019-05-28T09:28:29.395Z,54.67
2019-05-28T09:30:48.553Z,55.43
2019-05-28T09:33:18.400Z,55.53
2019-05-28T09:36:06.359Z,55.37
2019-05-28T09:38:20.446Z,52.87
2019-05-28T09:40:51.304Z,55.13
2019-05-28T09:43:23.237Z,56.20
2019-05-28T09:45:52.902Z,57.47
2019-05-28T09:48:22.752Z,55.93
2019-05-28T09:50:52.439Z,55.80
2019-05-28T09:53:22.113Z,57.07
2019-05-28T09:55:51.784Z,55.97
2019-05-28T09:58:21.457Z,55.90
2019-05-28T10:00:58.068Z,55.60
2019-05-28T10:03:23.800Z,53.77
2019-05-28T10:06:06.793Z,55.07
2019-05-28T10:08:24.999Z,53.63
2019-05-28T10:10:54.639Z,52.33
2019-05-28T10:13:38.001Z,54.83
2019-05-28T10:15:56.025Z,52.50
2019-05-28T10:18:25.657Z,54.43
2019-05-28T10:20:55.335Z,53.73
2019-05-28T10:23:25.002Z,53.83
2019-05-28T10:25:55.836Z,54.93
2019-05-28T10:28:27.801Z,53.97
2019-05-28T10:30:59.933Z,56.07
2019-05-28T10:33:29.637Z,54.07
2019-05-28T10:35:59.352Z,53.30
2019-05-28T10:38:29.008Z,52.97
2019-05-28T10:40:58.727Z,53.90
2019-05-28T10:43:28.408Z,54.73
2019-05-28T10:45:58.240Z,56.67
2019-05-28T10:48:28.035Z,54.03
2019-05-28T10:50:57.721Z,52.67
2019-05-28T10:53:27.546Z,53.60
2019-05-28T10:56:00.395Z,55.83
2019-05-28T10:58:31.603Z,55.83
2019-05-28T11:01:02.679Z,55.50
2019-05-28T11:03:32.546Z,54.77
2019-05-28T11:06:03.398Z,55.13
2019-05-28T11:08:33.058Z,55.57
2019-05-28T11:11:24.731Z,54.97
2019-05-28T11:13:54.430Z,52.97
2019-05-28T11:16:24.133Z,55.63
2019-05-28T11:18:55.080Z,54.17
2019-05-28T11:21:24.747Z,53.73
2019-05-28T11:23:54.410Z,55.57
2019-05-28T11:26:24.105Z,55.97
2019-05-28T11:28:53.777Z,58.43
2019-05-28T11:31:23.443Z,57.40
2019-05-28T11:33:53.166Z,57.10
2019-05-28T11:36:24.300Z,58.80
2019-05-28T11:38:54.015Z,58.23
2019-05-28T11:41:40.572Z,57.53
2019-05-28T11:43:55.109Z,58.67
2019-05-28T11:46:24.770Z,58.13
2019-05-28T11:48:54.468Z,58.07
2019-05-28T11:51:24.144Z,59.60
2019-05-28T11:53:55.082Z,59.50
2019-05-28T11:56:28.605Z,59.83
2019-05-28T11:58:58.244Z,59.57
2019-05-28T12:01:34.309Z,58.77
2019-05-28T12:03:59.366Z,60.07
2019-05-28T12:06:29.040Z,59.03
2019-05-28T12:08:58.730Z,59.50
2019-05-28T12:11:28.447Z,58.13
2019-05-28T12:13:58.131Z,60.93
2019-05-28T12:16:27.799Z,57.87
2019-05-28T12:18:58.401Z,59.87
2019-05-28T12:21:28.530Z,61.53
2019-05-28T12:23:59.734Z,59.40
2019-05-28T12:26:29.445Z,59.30
2019-05-28T12:28:59.207Z,58.43
2019-05-28T12:31:28.880Z,58.50
2019-05-28T12:33:58.587Z,58.73
2019-05-28T12:36:28.266Z,57.73
2019-05-28T12:38:58.007Z,57.73
2019-05-28T12:41:27.730Z,57.43
2019-05-28T12:43:57.470Z,58.83
2019-05-28T12:46:27.442Z,56.87
2019-05-28T12:48:57.152Z,56.60
2019-05-28T12:51:26.805Z,54.97
2019-05-28T12:53:56.535Z,56.50
2019-05-28T12:56:26.197Z,54.20
2019-05-28T12:59:00.421Z,54.97
2019-05-28T13:01:30.098Z,54.77
2019-05-28T13:03:59.802Z,56.40
2019-05-28T13:06:31.121Z,54.67
2019-05-28T13:09:01.905Z,56.23
2019-05-28T13:11:31.623Z,55.73
2019-05-28T13:14:01.308Z,57.40
2019-05-28T13:16:31.001Z,57.87
2019-05-28T13:19:02.972Z,57.63
2019-05-28T13:21:33.070Z,57.57
2019-05-28T13:24:02.723Z,59.53
2019-05-28T13:26:34.827Z,58.83
2019-05-28T13:29:04.678Z,58.40
2019-05-28T13:31:34.669Z,58.83
2019-05-28T13:34:07.642Z,59.80
2019-05-28T13:36:37.325Z,58.97
2019-05-28T13:39:08.575Z,60.37
2019-05-28T13:41:39.770Z,59.20
2019-05-28T13:44:10.929Z,61.10
2019-05-28T13:46:43.404Z,61.87
2019-05-28T13:49:13.711Z,60.60
2019-05-28T13:51:44.941Z,62.40
2019-05-28T13:54:14.638Z,63.67
2019-05-28T13:56:44.343Z,64.63
2019-05-28T13:59:14.680Z,63.90
2019-05-28T14:01:44.346Z,64.83
2019-05-28T14:04:14.118Z,66.50
2019-05-28T14:06:44.780Z,66.43
2019-05-28T14:09:14.751Z,65.40
2019-05-28T14:11:46.606Z,67.43
2019-05-28T14:14:16.270Z,66.07
2019-05-28T14:16:48.059Z,65.40
2019-05-28T14:19:17.886Z,65.23
2019-05-28T14:21:47.547Z,66.30
2019-05-28T14:24:17.228Z,65.80
2019-05-28T14:26:46.926Z,66.60
2019-05-28T14:29:16.697Z,63.30
2019-05-28T14:31:46.382Z,64.43
2019-05-28T14:34:17.169Z,62.77
2019-05-28T14:36:46.820Z,64.53
2019-05-28T14:39:16.475Z,64.07
2019-05-28T14:41:46.161Z,64.63
2019-05-28T14:44:18.393Z,65.07
2019-05-28T14:46:48.074Z,65.63
2019-05-28T14:49:17.761Z,66.17
2019-05-28T14:51:47.430Z,66.03
2019-05-28T14:54:17.256Z,68.73
2019-05-28T14:56:46.935Z,67.30
2019-05-28T14:59:18.140Z,67.23
2019-05-28T15:01:50.536Z,68.43
2019-05-28T15:04:20.248Z,67.80
2019-05-28T15:06:49.944Z,69.93
2019-05-28T15:09:21.514Z,70.07
2019-05-28T15:11:51.039Z,68.97
2019-05-28T15:14:22.165Z,69.70
2019-05-28T15:16:51.830Z,68.33
2019-05-28T15:19:21.614Z,67.27
2019-05-28T15:21:51.277Z,64.83
2019-05-28T15:24:20.947Z,65.73
2019-05-28T15:26:50.647Z,66.43
2019-05-28T15:29:20.422Z,64.27
2019-05-28T15:31:50.531Z,65.67
2019-05-28T15:34:20.218Z,65.30
2019-05-28T15:36:50.197Z,68.97
2019-05-28T15:39:36.068Z,67.23
2019-05-28T15:41:51.547Z,66.23
2019-05-28T15:44:21.296Z,69.10
2019-05-28T15:46:50.981Z,66.07
2019-05-28T15:49:21.580Z,70.10
2019-05-28T15:51:51.251Z,66.27
2019-05-28T15:54:20.937Z,66.53
2019-05-28T15:56:50.997Z,64.53
2019-05-28T15:59:22.229Z,67.00
2019-05-28T16:01:53.200Z,69.33
2019-05-28T16:04:23.573Z,68.93
2019-05-28T16:06:53.435Z,71.03
2019-05-28T16:09:24.152Z,68.67
2019-05-28T16:11:53.918Z,71.80
2019-05-28T16:14:23.597Z,71.53
2019-05-28T16:16:55.026Z,71.53
2019-05-28T16:19:25.090Z,71.67
2019-05-28T16:21:56.998Z,71.77
2019-05-28T16:24:28.213Z,70.53
2019-05-28T16:26:57.868Z,69.43
2019-05-28T16:29:27.557Z,69.27
2019-05-28T16:31:57.260Z,70.93
2019-05-28T16:34:28.375Z,73.23
2019-05-28T16:36:59.519Z,73.43
2019-05-28T16:39:30.319Z,70.77
2019-05-28T16:41:59.994Z,71.20
2019-05-28T16:44:29.760Z,71.33
2019-05-28T16:47:15.314Z,73.17
2019-05-28T16:49:31.203Z,71.87
2019-05-28T16:52:02.566Z,72.40
2019-05-28T16:54:32.487Z,71.10
2019-05-28T16:57:03.594Z,70.40
2019-05-28T16:59:33.243Z,71.63
2019-05-28T17:02:04.167Z,71.43
2019-05-28T17:04:33.878Z,74.43
2019-05-28T17:07:03.449Z,71.17
2019-05-28T17:09:33.924Z,69.87
2019-05-28T17:12:04.969Z,72.03
2019-05-28T17:14:36.955Z,70.90
2019-05-28T17:17:08.678Z,71.13
2019-05-28T17:19:38.367Z,69.03
2019-05-28T17:22:11.903Z,70.57
2019-05-28T17:24:42.312Z,72.17
2019-05-28T17:27:12.072Z,68.07
2019-05-28T17:29:41.758Z,72.10
2019-05-28T17:32:11.487Z,68.87
2019-05-28T17:34:41.760Z,69.17
2019-05-28T17:37:11.448Z,81.23
2019-05-28T17:39:41.132Z,69.70
2019-05-28T17:42:11.056Z,70.50
2019-05-28T17:44:43.045Z,72.67
2019-05-28T17:47:14.364Z,74.65
2019-05-28T17:49:45.647Z,69.93
2019-05-28T17:52:15.363Z,70.13
2019-05-28T17:54:45.027Z,68.77
2019-05-28T17:57:14.708Z,73.70
2019-05-28T17:59:45.686Z,70.80
2019-05-28T18:02:15.346Z,68.43
2019-05-28T18:04:45.017Z,70.97
2019-05-28T18:07:14.718Z,68.13
2019-05-28T18:09:44.485Z,68.40
2019-05-28T18:12:14.177Z,69.20
2019-05-28T18:14:43.907Z,70.40
2019-05-28T18:17:13.588Z,68.50
2019-05-28T18:19:45.498Z,66.93
2019-05-28T18:22:15.341Z,69.30
2019-05-28T18:24:45.026Z,70.43
2019-05-28T18:27:14.687Z,69.47
2019-05-28T18:29:44.467Z,68.27
2019-05-28T18:32:14.131Z,68.33
2019-05-28T18:34:43.789Z,70.53
2019-05-28T18:37:13.577Z,70.50
2019-05-28T18:39:43.252Z,70.00
2019-05-28T18:42:14.556Z,71.40
2019-05-28T18:44:44.251Z,67.83
2019-05-28T18:47:13.995Z,67.93
2019-05-28T18:49:43.678Z,70.07
2019-05-28T18:52:13.407Z,66.77
2019-05-28T18:54:43.253Z,72.03
2019-05-28T18:57:13.162Z,70.20
2019-05-28T18:59:42.915Z,68.67
2019-05-28T19:02:12.921Z,68.90
2019-05-28T19:04:42.658Z,67.73
2019-05-28T19:07:12.337Z,66.37
2019-05-28T19:09:43.480Z,67.20
2019-05-28T19:12:13.138Z,67.13
2019-05-28T19:14:42.933Z,66.17
2019-05-28T19:17:13.853Z,67.70
2019-05-28T19:19:43.505Z,66.00
2019-05-28T19:22:14.381Z,64.83
2019-05-28T19:24:44.036Z,68.43
2019-05-28T19:27:13.714Z,65.70
2019-05-28T19:29:44.878Z,60.90
2019-05-28T19:32:14.609Z,62.53
2019-05-28T19:34:48.589Z,61.23
2019-05-28T19:37:16.874Z,62.80
2019-05-28T19:39:47.632Z,64.60
2019-05-28T19:42:17.441Z,62.60
2019-05-28T19:44:47.144Z,60.87
2019-05-28T19:47:16.814Z,62.10
2019-05-28T19:49:46.609Z,58.40
2019-05-28T19:52:16.378Z,59.40
2019-05-28T19:54:46.135Z,61.17
2019-05-28T19:57:17.491Z,58.00
2019-05-28T19:59:48.600Z,56.13
2019-05-28T20:02:19.676Z,59.60
2019-05-28T20:04:55.105Z,56.50
2019-05-28T20:07:24.775Z,61.63
2019-05-28T20:09:54.509Z,58.40
2019-05-28T20:12:24.413Z,60.20
2019-05-28T20:14:54.105Z,58.07
2019-05-28T20:17:23.786Z,56.10
2019-05-28T20:19:57.419Z,56.13
2019-05-28T20:22:26.698Z,55.53
2019-05-28T20:24:56.374Z,56.63
2019-05-28T20:27:26.084Z,60.57
2019-05-28T20:29:55.754Z,56.13
2019-05-28T20:32:28.231Z,55.03
2019-05-28T20:34:59.155Z,53.63
2019-05-28T20:37:31.490Z,54.57
2019-05-28T20:40:02.268Z,54.17
2019-05-28T20:42:35.870Z,54.63
2019-05-28T20:45:18.552Z,58.73
2019-05-28T20:47:48.150Z,54.83
2019-05-28T20:50:18.415Z,56.97
2019-05-28T20:52:48.151Z,56.90
2019-05-28T20:55:18.636Z,55.67
2019-05-28T20:57:49.162Z,53.90
2019-05-28T21:00:23.890Z,52.97
2019-05-28T21:02:53.933Z,53.97
2019-05-28T21:05:23.984Z,52.67
2019-05-28T21:07:54.748Z,53.47
2019-05-28T21:10:27.161Z,54.43
2019-05-28T21:12:56.965Z,51.93
2019-05-28T21:15:26.881Z,52.83
2019-05-28T21:17:57.372Z,52.80
2019-05-28T21:20:34.496Z,53.00
2019-05-28T21:23:05.367Z,52.63
2019-05-28T21:25:36.505Z,56.60
2019-05-28T21:28:09.368Z,52.80
2019-05-28T21:30:38.995Z,51.37
2019-05-28T21:33:08.687Z,55.23
2019-05-28T21:35:40.223Z,52.73
2019-05-28T21:38:09.878Z,53.27
2019-05-28T21:40:39.555Z,53.00
2019-05-28T21:43:10.058Z,52.40
2019-05-28T21:45:41.439Z,54.03
2019-05-28T21:48:11.100Z,50.47
2019-05-28T21:50:40.807Z,52.30
2019-05-28T21:53:10.481Z,53.00
2019-05-28T21:55:41.391Z,49.70
2019-05-28T21:58:11.091Z,51.70
2019-05-28T22:00:46.815Z,51.63
2019-05-28T22:03:17.011Z,51.40
2019-05-28T22:05:46.656Z,53.10
2019-05-28T22:08:18.518Z,53.13
2019-05-28T22:10:48.276Z,52.23
2019-05-28T22:13:22.169Z,50.93
2019-05-28T22:15:49.352Z,51.20
2019-05-28T22:18:20.538Z,54.30
2019-05-28T22:20:51.098Z,50.37
2019-05-28T22:23:22.832Z,48.27
2019-05-28T22:25:52.499Z,51.10
2019-05-28T22:28:22.241Z,48.97
2019-05-28T22:30:52.146Z,50.80
2019-05-28T22:33:21.910Z,51.83
2019-05-28T22:35:52.821Z,51.73
2019-05-28T22:38:22.495Z,48.17
2019-05-28T22:40:52.257Z,49.23
2019-05-28T22:43:31.249Z,50.07
2019-05-28T22:45:53.393Z,50.07
2019-05-28T22:48:24.608Z,50.40
2019-05-28T22:50:54.265Z,49.00
2019-05-28T22:53:23.952Z,53.13
2019-05-28T22:55:54.552Z,50.93
2019-05-28T22:58:25.426Z,49.93
2019-05-28T23:00:55.103Z,52.97
2019-05-28T23:03:24.789Z,49.93
2019-05-28T23:05:54.467Z,49.10
2019-05-28T23:08:24.123Z,48.23
2019-05-28T23:10:56.772Z,48.40
2019-05-28T23:13:25.214Z,50.10
2019-05-28T23:15:54.894Z,48.70
2019-05-28T23:18:24.574Z,51.23
2019-05-28T23:20:55.685Z,49.63
2019-05-28T23:23:27.534Z,48.73
2019-05-28T23:25:57.231Z,50.20
2019-05-28T23:28:26.955Z,50.13
2019-05-28T23:30:58.810Z,50.43
2019-05-28T23:33:28.545Z,52.70
2019-05-28T23:35:58.263Z,47.93
2019-05-28T23:38:31.256Z,47.33
2019-05-28T23:41:03.397Z,50.17
2019-05-28T23:43:33.643Z,51.60
2019-05-28T23:46:04.496Z,49.40
2019-05-28T23:48:34.396Z,47.87
2019-05-28T23:51:04.386Z,49.27
2019-05-28T23:53:35.713Z,48.60
2019-05-28T23:56:05.588Z,47.73
2019-05-28T23:58:36.776Z,52.93
